Battle Harbour, Canada
Current Conditions -  °F | °C
As of 1:00 PM on Friday 24 Oct 2014 (Local Time) from CYMH Reporting Station
Clear Clear  
Wind Chill:   Ceiling: Unl
Heat Index:   Visibility: 15mi
Dew Point:   Wind: 9mph
Humidity: 66%   Direction: 60°ENE
Pressure: 30.08"   Gusts: NA
Location:  52.27°N, 55.58°W
Report Text: CYMH 241600Z 06008KT 15SM SKC 07/01 A3008 RMK SLP188
Loading
Personal Weather Stations






























Interactive Weather Map
Tropical Storm Tracking
New forecast layout! Learn more

10-Day Weather Forecast

Advertisements
Track Severe Weather on mobile